createdAt,value
2022-09-20T00:00:48.042Z,101015.22
2022-09-20T00:03:15.574Z,101010.72
2022-09-20T00:05:43.283Z,101010.88
2022-09-20T00:08:12.511Z,101015.66
2022-09-20T00:10:39.340Z,101013.63
2022-09-20T00:13:06.836Z,101025.63
2022-09-20T00:15:33.263Z,101019.31
2022-09-20T00:18:00.212Z,101023.34
2022-09-20T00:20:26.551Z,101022.75
2022-09-20T00:22:52.824Z,101022.75
2022-09-20T00:25:19.882Z,101023.09
2022-09-20T00:27:46.327Z,101022.28
2022-09-20T00:30:13.586Z,101025.53
2022-09-20T00:32:40.617Z,101032.25
2022-09-20T00:35:07.676Z,101029.91
2022-09-20T00:37:34.803Z,101030.81
2022-09-20T00:40:01.825Z,101026.44
2022-09-20T00:42:29.566Z,101040.94
2022-09-20T00:44:55.945Z,101031.22
2022-09-20T00:47:25.040Z,101037.47
2022-09-20T00:49:53.079Z,101036.66
2022-09-20T00:52:20.466Z,101044.66
2022-09-20T00:54:47.169Z,101042.41
2022-09-20T00:57:13.597Z,101046.31
2022-09-20T00:59:41.725Z,101048.53
2022-09-20T01:02:08.072Z,101043.56
2022-09-20T01:04:35.953Z,101048.94
2022-09-20T01:07:03.859Z,101051.66
2022-09-20T01:09:30.166Z,101050.88
2022-09-20T01:11:57.674Z,101048.13
2022-09-20T01:14:26.100Z,101057.47
2022-09-20T01:16:54.669Z,101054.84
2022-09-20T01:19:39.503Z,101044.00
2022-09-20T01:22:11.149Z,101052.44
2022-09-20T01:24:41.570Z,101045.50
2022-09-20T01:27:14.432Z,101052.25
2022-09-20T01:29:43.831Z,101051.44
2022-09-20T01:32:14.931Z,101055.88
2022-09-20T01:34:45.475Z,101051.44
2022-09-20T01:37:14.889Z,101056.91
2022-09-20T01:39:52.012Z,101065.59
2022-09-20T01:42:18.423Z,101057.59
2022-09-20T01:45:02.190Z,101068.53
2022-09-20T01:47:47.333Z,101061.50
2022-09-20T01:50:13.617Z,101064.81
2022-09-20T01:52:55.355Z,101063.31
2022-09-20T01:55:21.692Z,101070.84
2022-09-20T01:58:10.265Z,101061.69
2022-09-20T02:01:06.216Z,101064.22
2022-09-20T02:03:44.426Z,101061.47
2022-09-20T02:06:13.731Z,101061.00
2022-09-20T02:08:58.982Z,101058.84
2022-09-20T02:11:48.531Z,101064.91
2022-09-20T02:14:28.692Z,101061.13
2022-09-20T02:17:02.857Z,101069.81
2022-09-20T02:19:38.165Z,101062.50
2022-09-20T02:22:18.002Z,101060.66
2022-09-20T02:24:50.745Z,101062.28
2022-09-20T02:27:17.013Z,101065.03
2022-09-20T02:29:52.490Z,101066.72
2022-09-20T02:32:37.034Z,101063.31
2022-09-20T02:35:27.561Z,101061.47
2022-09-20T02:38:05.712Z,101062.75
2022-09-20T02:40:35.122Z,101056.66
2022-09-20T02:43:07.492Z,101066.28
2022-09-20T02:45:47.917Z,101068.22
2022-09-20T02:48:16.665Z,101070.72
2022-09-20T02:51:18.483Z,101075.09
2022-09-20T02:53:54.997Z,101082.56
2022-09-20T02:56:33.356Z,101084.91
2022-09-20T02:59:18.138Z,101086.19
2022-09-20T03:02:01.033Z,101082.69
2022-09-20T03:04:39.563Z,101089.50
2022-09-20T03:07:24.761Z,101094.88
2022-09-20T03:10:01.495Z,101089.09
2022-09-20T03:12:27.767Z,101096.41
2022-09-20T03:14:54.045Z,101100.06
2022-09-20T03:17:46.384Z,101097.34
2022-09-20T03:20:30.192Z,101111.28
2022-09-20T03:23:15.522Z,101106.53
2022-09-20T03:25:48.173Z,101110.59
2022-09-20T03:28:20.263Z,101118.72
2022-09-20T03:30:56.132Z,101112.88
2022-09-20T03:33:29.596Z,101108.44
2022-09-20T03:36:13.981Z,101112.66
2022-09-20T03:38:52.514Z,101110.81
2022-09-20T03:41:18.819Z,101109.56
2022-09-20T03:43:45.103Z,101113.78
2022-09-20T03:46:18.515Z,101114.84
2022-09-20T03:48:44.963Z,101119.66
2022-09-20T03:51:33.103Z,101122.03
2022-09-20T03:54:20.550Z,101118.50
2022-09-20T03:56:49.959Z,101112.63
2022-09-20T03:59:31.736Z,101112.41
2022-09-20T04:01:58.206Z,101111.03
2022-09-20T04:04:30.405Z,101109.22
2022-09-20T04:07:10.891Z,101113.66
2022-09-20T04:09:56.292Z,101113.09
2022-09-20T04:12:27.763Z,101113.66
2022-09-20T04:15:09.853Z,101121.50
2022-09-20T04:17:43.105Z,101114.91
2022-09-20T04:20:21.550Z,101116.97
2022-09-20T04:22:51.962Z,101115.13
2022-09-20T04:25:21.479Z,101112.03
2022-09-20T04:27:52.807Z,101112.38
2022-09-20T04:30:27.685Z,101114.22
2022-09-20T04:33:00.956Z,101114.34
2022-09-20T04:36:04.522Z,101113.63
2022-09-20T04:38:31.172Z,101117.78
2022-09-20T04:40:57.448Z,101119.84
2022-09-20T04:43:44.385Z,101119.06
2022-09-20T04:46:13.501Z,101118.81
2022-09-20T04:48:58.097Z,101129.91
2022-09-20T04:51:43.224Z,101127.72
2022-09-20T04:54:21.697Z,101132.31
2022-09-20T04:56:57.820Z,101138.25
2022-09-20T04:59:58.148Z,101142.34
2022-09-20T05:02:42.546Z,101142.81
2022-09-20T05:05:27.384Z,101148.03
2022-09-20T05:07:56.812Z,101154.69
2022-09-20T05:10:29.259Z,101154.34
2022-09-20T05:13:15.871Z,101150.78
2022-09-20T05:15:49.637Z,101156.03
2022-09-20T05:18:25.016Z,101168.00
2022-09-20T05:21:01.454Z,101158.66
2022-09-20T05:24:03.333Z,101154.84
2022-09-20T05:26:38.813Z,101159.78
2022-09-20T05:29:14.907Z,101165.41
2022-09-20T05:31:52.077Z,101167.94
2022-09-20T05:34:30.309Z,101171.03
2022-09-20T05:37:20.477Z,101176.03
2022-09-20T05:39:53.790Z,101174.38
2022-09-20T05:42:39.165Z,101181.97
2022-09-20T05:45:23.667Z,101172.78
2022-09-20T05:47:55.107Z,101179.44
2022-09-20T05:50:32.172Z,101182.38
2022-09-20T05:53:18.696Z,101179.31
2022-09-20T05:56:04.173Z,101179.38
2022-09-20T05:58:33.869Z,101180.78
2022-09-20T06:01:17.564Z,101180.09
2022-09-20T06:03:59.193Z,101186.44
2022-09-20T06:06:28.063Z,101185.47
2022-09-20T06:09:17.143Z,101193.47
2022-09-20T06:11:46.892Z,101194.22
2022-09-20T06:14:27.509Z,101193.16
2022-09-20T06:16:59.261Z,101203.38
2022-09-20T06:19:32.917Z,101207.41
2022-09-20T06:22:03.890Z,101203.66
2022-09-20T06:24:42.980Z,101203.75
2022-09-20T06:27:29.511Z,101206.84
2022-09-20T06:29:59.718Z,101199.84
2022-09-20T06:32:27.124Z,101211.84
2022-09-20T06:34:54.094Z,101209.25
2022-09-20T06:37:57.278Z,101204.06
2022-09-20T06:41:00.800Z,101213.59
2022-09-20T06:43:27.829Z,101212.28
2022-09-20T06:45:54.161Z,101207.56
2022-09-20T06:48:20.502Z,101209.78
2022-09-20T06:50:46.888Z,101216.97
2022-09-20T06:53:16.425Z,101209.53
2022-09-20T06:55:44.755Z,101215.88
2022-09-20T06:58:11.421Z,101214.72
2022-09-20T07:00:39.649Z,101214.59
2022-09-20T07:03:06.139Z,101217.66
2022-09-20T07:05:32.629Z,101218.44
2022-09-20T07:07:59.208Z,101219.81
2022-09-20T07:10:28.044Z,101221.88
2022-09-20T07:13:01.755Z,101226.28
2022-09-20T07:15:28.699Z,101229.44
2022-09-20T07:17:55.558Z,101237.13
2022-09-20T07:20:22.073Z,101234.50
2022-09-20T07:22:48.852Z,101242.28
2022-09-20T07:25:15.174Z,101236.34
2022-09-20T07:27:41.563Z,101238.84
2022-09-20T07:30:08.761Z,101238.59
2022-09-20T07:32:35.039Z,101237.72
2022-09-20T07:35:01.946Z,101240.22
2022-09-20T07:37:28.271Z,101243.44
2022-09-20T07:39:55.079Z,101253.13
2022-09-20T07:42:21.539Z,101247.53
2022-09-20T07:44:48.851Z,101253.16
2022-09-20T07:47:15.428Z,101240.69
2022-09-20T07:49:41.739Z,101255.31
2022-09-20T07:52:10.241Z,101259.41
2022-09-20T07:54:36.732Z,101259.31
2022-09-20T07:57:03.656Z,101263.91
2022-09-20T07:59:29.939Z,101265.25
2022-09-20T08:01:57.783Z,101267.31
2022-09-20T08:04:24.148Z,101268.56
2022-09-20T08:06:50.430Z,101269.25
2022-09-20T08:09:16.900Z,101275.16
2022-09-20T08:11:43.724Z,101274.59
2022-09-20T08:14:12.920Z,101275.03
2022-09-20T08:16:40.610Z,101281.47
2022-09-20T08:19:07.356Z,101286.03
2022-09-20T08:21:34.757Z,101284.88
2022-09-20T08:24:01.217Z,101288.16
2022-09-20T08:26:29.115Z,101281.28
2022-09-20T08:28:56.970Z,101283.88
2022-09-20T08:31:24.713Z,101293.78
2022-09-20T08:33:51.945Z,101285.34
2022-09-20T08:36:22.483Z,101285.28
2022-09-20T08:41:39.136Z,101290.69
2022-09-20T08:44:07.606Z,101295.47
2022-09-20T08:46:35.662Z,101285.44
2022-09-20T08:49:04.133Z,101291.91
2022-09-20T08:51:33.281Z,101285.91
2022-09-20T08:53:59.895Z,101289.38
2022-09-20T08:56:31.382Z,101294.19
2022-09-20T08:58:59.350Z,101304.66
2022-09-20T09:01:27.106Z,101305.22
2022-09-20T09:03:58.739Z,101310.63
2022-09-20T09:06:25.240Z,101303.06
2022-09-20T09:08:53.348Z,101304.94
2022-09-20T09:11:21.041Z,101309.84
2022-09-20T09:13:54.378Z,101311.06
2022-09-20T09:16:24.658Z,101307.88
2022-09-20T09:18:55.097Z,101308.22
2022-09-20T09:21:23.236Z,101308.75
2022-09-20T09:23:52.137Z,101307.88
2022-09-20T09:26:22.675Z,101304.50
2022-09-20T09:29:21.415Z,101317.47
2022-09-20T09:31:49.321Z,101316.59
2022-09-20T09:34:25.275Z,101315.84
2022-09-20T09:36:51.939Z,101313.19
2022-09-20T09:39:31.608Z,101314.97
2022-09-20T09:42:01.377Z,101320.66
2022-09-20T09:44:35.489Z,101321.91
2022-09-20T09:47:02.127Z,101323.22
2022-09-20T09:49:35.833Z,101321.38
2022-09-20T09:52:06.841Z,101320.56
2022-09-20T09:54:38.450Z,101318.88
2022-09-20T09:57:20.547Z,101319.34
2022-09-20T10:00:14.793Z,101318.59
2022-09-20T10:02:49.834Z,101321.53
2022-09-20T10:05:31.519Z,101322.16
2022-09-20T10:08:06.085Z,101322.25
2022-09-20T10:10:41.461Z,101315.84
2022-09-20T10:13:18.323Z,101312.56
2022-09-20T10:16:04.949Z,101306.56
2022-09-20T10:18:46.215Z,101319.13
2022-09-20T10:21:18.311Z,101315.56
2022-09-20T10:24:03.088Z,101322.56
2022-09-20T10:26:30.169Z,101315.25
2022-09-20T10:29:03.186Z,101319.16
2022-09-20T10:31:56.113Z,101326.31
2022-09-20T10:34:22.533Z,101317.41
2022-09-20T10:36:48.797Z,101313.94
2022-09-20T10:39:34.481Z,101320.78
2022-09-20T10:42:38.183Z,101312.06
2022-09-20T10:45:10.513Z,101325.41
2022-09-20T10:47:56.666Z,101330.28
2022-09-20T10:50:43.000Z,101324.44
2022-09-20T10:53:12.374Z,101355.81
2022-09-20T10:55:59.242Z,101345.88
2022-09-20T10:58:45.234Z,101357.59
2022-09-20T11:01:31.827Z,101349.34
2022-09-20T11:04:09.644Z,101355.03
2022-09-20T11:06:37.527Z,101355.81
2022-09-20T11:09:05.515Z,101359.66
2022-09-20T11:11:35.728Z,101368.38
2022-09-20T11:14:05.198Z,101375.81
2022-09-20T11:16:34.601Z,101344.72
2022-09-20T11:19:00.962Z,101345.22
2022-09-20T11:22:02.858Z,101351.47
2022-09-20T11:24:31.780Z,101349.69
2022-09-20T11:27:04.808Z,101356.81
2022-09-20T11:29:32.272Z,101355.91
2022-09-20T11:32:06.320Z,101390.38
2022-09-20T11:34:55.398Z,101391.28
2022-09-20T11:37:23.028Z,101374.47
2022-09-20T11:39:53.537Z,101371.97
2022-09-20T11:42:21.881Z,101367.72
2022-09-20T11:44:48.450Z,101389.50
2022-09-20T11:47:43.246Z,101381.09
2022-09-20T11:50:12.777Z,101394.88
2022-09-20T11:52:58.010Z,101406.00
2022-09-20T11:55:33.463Z,101420.00
2022-09-20T11:58:01.488Z,101420.03
2022-09-20T12:00:34.525Z,101419.22
2022-09-20T12:03:03.324Z,101419.75
2022-09-20T12:05:35.752Z,101416.88
2022-09-20T12:08:04.259Z,101407.88
2022-09-20T12:10:36.320Z,101409.03
2022-09-20T12:13:05.591Z,101423.19
2022-09-20T12:15:36.463Z,101414.59
2022-09-20T12:18:09.052Z,101422.31
2022-09-20T12:20:35.867Z,101425.16
2022-09-20T12:23:21.526Z,101433.31
2022-09-20T12:26:00.709Z,101435.94
2022-09-20T12:28:34.315Z,101450.22
2022-09-20T12:31:19.008Z,101451.16
2022-09-20T12:33:54.178Z,101460.59
2022-09-20T12:36:20.673Z,101449.97
2022-09-20T12:38:48.557Z,101452.31
2022-09-20T12:41:27.896Z,101450.97
2022-09-20T12:43:57.321Z,101458.47
2022-09-20T12:46:31.470Z,101451.88
2022-09-20T12:49:32.584Z,101453.38
2022-09-20T12:52:17.721Z,101453.97
2022-09-20T12:54:52.215Z,101453.56
2022-09-20T12:57:27.440Z,101451.34
2022-09-20T12:59:59.012Z,101450.22
2022-09-20T13:03:03.898Z,101454.44
2022-09-20T13:05:38.273Z,101448.84
2022-09-20T13:08:43.384Z,101459.19
2022-09-20T13:11:18.368Z,101450.63
2022-09-20T13:14:04.101Z,101449.34
2022-09-20T13:16:36.304Z,101446.38
2022-09-20T13:19:05.485Z,101448.88
2022-09-20T13:21:33.467Z,101452.44
2022-09-20T13:24:01.341Z,101449.34
2022-09-20T13:26:30.268Z,101454.75
2022-09-20T13:28:59.135Z,101456.94
2022-09-20T13:31:30.123Z,101455.31
2022-09-20T13:34:12.377Z,101457.16
2022-09-20T13:36:38.849Z,101466.66
2022-09-20T13:39:06.328Z,101463.09
2022-09-20T13:41:33.314Z,101469.72
2022-09-20T13:44:00.914Z,101477.63
2022-09-20T13:46:33.340Z,101469.03
2022-09-20T13:49:08.835Z,101477.03
2022-09-20T13:51:35.371Z,101480.72
2022-09-20T13:54:18.544Z,101483.13
2022-09-20T13:56:45.052Z,101493.19
2022-09-20T13:59:19.189Z,101488.75
2022-09-20T14:01:50.699Z,101492.81
2022-09-20T14:04:18.422Z,101493.28
2022-09-20T14:06:45.098Z,101494.78
2022-09-20T14:09:20.095Z,101489.56
2022-09-20T14:11:46.785Z,101479.34
2022-09-20T14:14:16.447Z,101501.41
2022-09-20T14:16:46.744Z,101491.09
2022-09-20T14:19:15.653Z,101486.94
2022-09-20T14:21:43.603Z,101486.31
2022-09-20T14:24:16.620Z,101484.88
2022-09-20T14:26:43.670Z,101477.13
2022-09-20T14:29:29.533Z,101481.22
2022-09-20T14:31:56.799Z,101496.88
2022-09-20T14:34:23.666Z,101485.59
2022-09-20T14:36:50.724Z,101484.94
2022-09-20T14:39:19.008Z,101492.44
2022-09-20T14:41:46.486Z,101495.09
2022-09-20T14:44:26.389Z,101491.66
2022-09-20T14:46:54.262Z,101507.41
2022-09-20T14:49:20.674Z,101501.34
2022-09-20T14:51:48.041Z,101514.66
2022-09-20T14:54:15.171Z,101509.41
2022-09-20T14:56:44.282Z,101512.94
2022-09-20T14:59:20.030Z,101506.00
2022-09-20T15:02:04.985Z,101504.13
2022-09-20T15:04:32.794Z,101512.31
2022-09-20T15:07:03.341Z,101527.06
2022-09-20T15:09:29.941Z,101521.94
2022-09-20T15:12:00.352Z,101529.81
2022-09-20T15:14:26.637Z,101536.28
2022-09-20T15:16:53.010Z,101527.56
2022-09-20T15:19:19.380Z,101530.31
2022-09-20T15:21:45.675Z,101540.03
2022-09-20T15:24:12.019Z,101533.66
2022-09-20T15:26:38.783Z,101536.00
2022-09-20T15:29:06.029Z,101529.22
2022-09-20T15:31:32.378Z,101535.44
2022-09-20T15:33:58.756Z,101536.72
2022-09-20T15:36:31.677Z,101541.44
2022-09-20T15:38:58.311Z,101544.25
2022-09-20T15:41:30.509Z,101539.38
2022-09-20T15:43:57.826Z,101547.53
2022-09-20T15:46:26.959Z,101541.22
2022-09-20T15:48:53.951Z,101545.69
2022-09-20T15:51:20.266Z,101542.75
2022-09-20T15:54:00.499Z,101555.03
2022-09-20T15:56:31.104Z,101557.47
2022-09-20T15:59:01.589Z,101565.44
2022-09-20T16:01:29.140Z,101553.94
2022-09-20T16:03:55.929Z,101560.53
2022-09-20T16:06:23.168Z,101558.44
2022-09-20T16:08:49.576Z,101565.03
2022-09-20T16:11:22.274Z,101572.09
2022-09-20T16:13:58.816Z,101566.03
2022-09-20T16:16:26.260Z,101570.59
2022-09-20T16:19:11.799Z,101569.25
2022-09-20T16:21:42.069Z,101576.66
2022-09-20T16:24:08.866Z,101585.69
2022-09-20T16:26:35.976Z,101593.97
2022-09-20T16:29:04.575Z,101580.06
2022-09-20T16:31:47.787Z,101580.72
2022-09-20T16:34:19.252Z,101575.97
2022-09-20T16:36:46.489Z,101583.72
2022-09-20T16:39:13.894Z,101585.22
2022-09-20T16:41:43.312Z,101582.13
2022-09-20T16:44:09.780Z,101584.00
2022-09-20T16:46:38.903Z,101586.34
2022-09-20T16:49:13.063Z,101591.28
2022-09-20T16:51:40.387Z,101593.94
2022-09-20T16:54:09.530Z,101596.25
2022-09-20T16:56:35.965Z,101587.91
2022-09-20T16:59:03.694Z,101591.81
2022-09-20T17:01:31.186Z,101593.22
2022-09-20T17:03:57.701Z,101600.25
2022-09-20T17:06:24.870Z,101600.03
2022-09-20T17:08:56.782Z,101602.53
2022-09-20T17:11:26.068Z,101609.94
2022-09-20T17:13:53.761Z,101606.94
2022-09-20T17:16:21.415Z,101609.25
2022-09-20T17:18:54.008Z,101607.88
2022-09-20T17:21:21.352Z,101605.16
2022-09-20T17:23:51.101Z,101609.41
2022-09-20T17:26:19.981Z,101613.97
2022-09-20T17:28:47.522Z,101613.66
2022-09-20T17:31:15.319Z,101623.19
2022-09-20T17:33:42.258Z,101614.25
2022-09-20T17:36:12.171Z,101620.00
2022-09-20T17:38:39.323Z,101619.31
2022-09-20T17:41:10.386Z,101624.63
2022-09-20T17:43:37.636Z,101629.47
2022-09-20T17:46:25.792Z,101634.88
2022-09-20T17:48:54.350Z,101632.94
2022-09-20T17:51:21.425Z,101638.31
2022-09-20T17:53:47.780Z,101634.63
2022-09-20T17:56:14.533Z,101639.22
2022-09-20T17:58:41.465Z,101644.84
2022-09-20T18:01:12.719Z,101643.94
2022-09-20T18:03:40.478Z,101643.84
2022-09-20T18:06:10.441Z,101659.88
2022-09-20T18:08:36.767Z,101659.66
2022-09-20T18:11:03.588Z,101663.88
2022-09-20T18:13:31.231Z,101661.94
2022-09-20T18:15:57.748Z,101667.09
2022-09-20T18:18:24.054Z,101668.44
2022-09-20T18:20:50.432Z,101669.63
2022-09-20T18:23:17.372Z,101661.00
2022-09-20T18:26:02.124Z,101666.38
2022-09-20T18:28:28.865Z,101672.72
2022-09-20T18:31:02.196Z,101670.06
2022-09-20T18:33:29.485Z,101681.53
2022-09-20T18:36:03.068Z,101678.09
2022-09-20T18:38:29.814Z,101677.16
2022-09-20T18:41:00.183Z,101682.19
2022-09-20T18:43:30.248Z,101680.97
2022-09-20T18:45:57.175Z,101675.34
2022-09-20T18:48:24.383Z,101672.50
2022-09-20T18:50:57.727Z,101665.16
2022-09-20T18:53:37.309Z,101676.56
2022-09-20T18:56:18.734Z,101688.66
2022-09-20T18:58:45.108Z,101675.81
2022-09-20T19:01:11.442Z,101680.31
2022-09-20T19:03:58.683Z,101682.63
2022-09-20T19:06:29.787Z,101677.38
2022-09-20T19:09:02.966Z,101679.66
2022-09-20T19:11:39.096Z,101680.03
2022-09-20T19:14:28.576Z,101681.75
2022-09-20T19:17:00.190Z,101687.38
2022-09-20T19:19:45.060Z,101686.88
2022-09-20T19:22:29.160Z,101687.13
2022-09-20T19:25:01.381Z,101687.22
2022-09-20T19:27:28.089Z,101693.81
2022-09-20T19:29:54.749Z,101692.63
2022-09-20T19:32:24.236Z,101687.91
2022-09-20T19:34:51.271Z,101695.31
2022-09-20T19:37:20.651Z,101686.16
2022-09-20T19:39:53.109Z,101695.38
2022-09-20T19:42:37.858Z,101698.81
2022-09-20T19:45:14.206Z,101694.41
2022-09-20T19:47:58.697Z,101699.34
2022-09-20T19:50:34.981Z,101707.13
2022-09-20T19:53:04.030Z,101707.13
2022-09-20T19:55:31.449Z,101701.66
2022-09-20T19:57:58.449Z,101702.19
2022-09-20T20:00:25.299Z,101702.31
2022-09-20T20:02:52.409Z,101695.94
2022-09-20T20:05:20.429Z,101699.75
2022-09-20T20:07:56.636Z,101701.50
2022-09-20T20:10:25.820Z,101700.34
2022-09-20T20:13:03.252Z,101693.78
2022-09-20T20:15:42.887Z,101693.59
2022-09-20T20:18:16.385Z,101694.72
2022-09-20T20:20:46.481Z,101698.84
2022-09-20T20:23:12.786Z,101699.59
2022-09-20T20:25:48.217Z,101701.72
2022-09-20T20:28:14.528Z,101700.56
2022-09-20T20:30:40.846Z,101701.75
2022-09-20T20:33:07.311Z,101708.91
2022-09-20T20:35:34.074Z,101708.25
2022-09-20T20:38:00.372Z,101708.75
2022-09-20T20:40:28.344Z,101715.81
2022-09-20T20:43:01.950Z,101725.09
2022-09-20T20:45:28.971Z,101730.31
2022-09-20T20:47:58.649Z,101728.06
2022-09-20T20:50:26.230Z,101727.91
2022-09-20T20:52:53.924Z,101733.88
2022-09-20T20:55:20.377Z,101733.97
2022-09-20T20:57:57.285Z,101739.22
2022-09-20T21:00:24.407Z,101740.75
2022-09-20T21:02:58.220Z,101729.06
2022-09-20T21:05:24.825Z,101734.81
2022-09-20T21:07:52.339Z,101732.63
2022-09-20T21:10:18.939Z,101727.28
2022-09-20T21:12:45.301Z,101723.91
2022-09-20T21:15:11.945Z,101731.03
2022-09-20T21:17:38.232Z,101730.53
2022-09-20T21:20:04.625Z,101731.28
2022-09-20T21:22:32.061Z,101727.16
2022-09-20T21:24:58.590Z,101735.88
2022-09-20T21:27:26.203Z,101728.78
2022-09-20T21:29:52.488Z,101732.94
2022-09-20T21:32:19.870Z,101732.28
2022-09-20T21:34:46.162Z,101736.06
2022-09-20T21:37:12.626Z,101737.44
2022-09-20T21:39:38.941Z,101735.28
2022-09-20T21:42:07.475Z,101744.44
2022-09-20T21:44:33.796Z,101731.56
2022-09-20T21:47:00.135Z,101736.47
2022-09-20T21:49:26.420Z,101745.97
2022-09-20T21:51:53.242Z,101747.59
2022-09-20T21:54:19.784Z,101733.44
2022-09-20T21:56:46.106Z,101744.53
2022-09-20T21:59:12.693Z,101747.31
2022-09-20T22:01:40.075Z,101752.81
2022-09-20T22:04:08.010Z,101746.97
2022-09-20T22:06:36.305Z,101755.56
2022-09-20T22:09:04.246Z,101752.38
2022-09-20T22:11:32.143Z,101758.09
2022-09-20T22:13:59.100Z,101769.63
2022-09-20T22:16:27.008Z,101771.38
2022-09-20T22:18:53.841Z,101780.13
2022-09-20T22:21:24.156Z,101792.31
2022-09-20T22:23:51.733Z,101785.22
2022-09-20T22:26:19.319Z,101791.22
2022-09-20T22:28:45.629Z,101797.06
2022-09-20T22:31:13.542Z,101800.47
2022-09-20T22:33:41.150Z,101800.97
2022-09-20T22:36:08.034Z,101806.34
2022-09-20T22:38:34.393Z,101804.22
2022-09-20T22:41:00.744Z,101804.06
2022-09-20T22:43:27.659Z,101805.03
2022-09-20T22:45:54.063Z,101801.78
2022-09-20T22:48:20.549Z,101802.22
2022-09-20T22:50:46.869Z,101808.28
2022-09-20T22:53:13.222Z,101807.78
2022-09-20T22:55:39.497Z,101811.50
2022-09-20T22:58:05.804Z,101816.81
2022-09-20T23:00:32.225Z,101813.91
2022-09-20T23:02:58.843Z,101816.66
2022-09-20T23:05:26.652Z,101818.28
2022-09-20T23:07:52.962Z,101819.38
2022-09-20T23:10:19.331Z,101811.69
2022-09-20T23:12:49.480Z,101814.06
2022-09-20T23:15:15.941Z,101817.63
2022-09-20T23:17:42.225Z,101825.03
2022-09-20T23:20:09.036Z,101818.28
2022-09-20T23:22:35.340Z,101815.72
2022-09-20T23:25:01.621Z,101823.94
2022-09-20T23:27:27.901Z,101817.66
2022-09-20T23:29:54.216Z,101827.16
2022-09-20T23:32:20.502Z,101821.38
2022-09-20T23:34:46.917Z,101824.09
2022-09-20T23:37:13.203Z,101818.44
2022-09-20T23:39:40.591Z,101823.78
2022-09-20T23:42:06.985Z,101828.78
2022-09-20T23:44:33.336Z,101838.00
2022-09-20T23:46:59.844Z,101831.06
2022-09-20T23:49:26.610Z,101831.06
2022-09-20T23:51:52.909Z,101829.28
2022-09-20T23:54:19.184Z,101826.38
2022-09-20T23:56:46.096Z,101831.34
2022-09-20T23:59:12.437Z,101832.75
